sensor_id;sensor_type;location;lat;lon;timestamp;pressure;altitude;pressure_sealevel;temperature;humidity
32081;BME280;18593;51.426;7.030;2023-06-24T00:02:21;101428.22;;;19.87;60.01
32081;BME280;18593;51.426;7.030;2023-06-24T00:04:50;101419.50;;;19.85;60.35
32081;BME280;18593;51.426;7.030;2023-06-24T00:07:18;101414.34;;;19.84;60.14
32081;BME280;18593;51.426;7.030;2023-06-24T00:09:48;101417.31;;;19.82;60.51
32081;BME280;18593;51.426;7.030;2023-06-24T00:12:15;101420.50;;;19.79;60.24
32081;BME280;18593;51.426;7.030;2023-06-24T00:14:45;101422.38;;;19.78;60.34
32081;BME280;18593;51.426;7.030;2023-06-24T00:17:12;101417.25;;;19.77;60.57
32081;BME280;18593;51.426;7.030;2023-06-24T00:19:43;101421.00;;;19.76;60.29
32081;BME280;18593;51.426;7.030;2023-06-24T00:22:11;101415.03;;;19.74;60.25
32081;BME280;18593;51.426;7.030;2023-06-24T00:24:38;101416.09;;;19.73;60.52
32081;BME280;18593;51.426;7.030;2023-06-24T00:27:06;101416.31;;;19.71;60.39
32081;BME280;18593;51.426;7.030;2023-06-24T00:29:33;101416.56;;;19.70;60.38
32081;BME280;18593;51.426;7.030;2023-06-24T00:32:01;101409.53;;;19.69;60.62
32081;BME280;18593;51.426;7.030;2023-06-24T00:34:29;101407.91;;;19.68;60.54
32081;BME280;18593;51.426;7.030;2023-06-24T00:36:57;101406.25;;;19.67;60.27
32081;BME280;18593;51.426;7.030;2023-06-24T00:39:26;101402.16;;;19.64;60.37
32081;BME280;18593;51.426;7.030;2023-06-24T00:41:54;101406.16;;;19.62;60.52
32081;BME280;18593;51.426;7.030;2023-06-24T00:44:21;101405.59;;;19.60;60.67
32081;BME280;18593;51.426;7.030;2023-06-24T00:46:48;101407.72;;;19.58;60.56
32081;BME280;18593;51.426;7.030;2023-06-24T00:49:16;101405.00;;;19.58;60.74
32081;BME280;18593;51.426;7.030;2023-06-24T00:51:43;101404.44;;;19.55;60.50
32081;BME280;18593;51.426;7.030;2023-06-24T00:54:17;101410.09;;;19.54;60.51
32081;BME280;18593;51.426;7.030;2023-06-24T00:56:46;101410.34;;;19.52;60.75
32081;BME280;18593;51.426;7.030;2023-06-24T00:59:16;101405.97;;;19.51;60.83
32081;BME280;18593;51.426;7.030;2023-06-24T01:01:43;101408.13;;;19.49;60.40
32081;BME280;18593;51.426;7.030;2023-06-24T01:04:11;101415.69;;;19.47;60.84
32081;BME280;18593;51.426;7.030;2023-06-24T01:06:39;101405.91;;;19.46;60.64
32081;BME280;18593;51.426;7.030;2023-06-24T01:09:09;101411.31;;;19.46;60.93
32081;BME280;18593;51.426;7.030;2023-06-24T01:11:39;101408.31;;;19.43;60.70
32081;BME280;18593;51.426;7.030;2023-06-24T01:14:07;101412.91;;;19.42;60.54
32081;BME280;18593;51.426;7.030;2023-06-24T01:16:48;101407.50;;;19.42;60.51
32081;BME280;18593;51.426;7.030;2023-06-24T01:19:38;101408.78;;;19.40;60.77
32081;BME280;18593;51.426;7.030;2023-06-24T01:22:28;101392.81;;;19.38;60.74
32081;BME280;18593;51.426;7.030;2023-06-24T01:25:17;101394.94;;;19.36;60.77
32081;BME280;18593;51.426;7.030;2023-06-24T01:28:25;101390.84;;;19.34;60.66
32081;BME280;18593;51.426;7.030;2023-06-24T01:31:31;101396.75;;;19.30;61.16
32081;BME280;18593;51.426;7.030;2023-06-24T01:34:15;101388.06;;;19.28;60.97
32081;BME280;18593;51.426;7.030;2023-06-24T01:36:58;101390.19;;;19.26;61.13
32081;BME280;18593;51.426;7.030;2023-06-24T01:39:28;101388.28;;;19.27;61.10
32081;BME280;18593;51.426;7.030;2023-06-24T01:42:06;101387.72;;;19.25;61.22
32081;BME280;18593;51.426;7.030;2023-06-24T01:44:35;101392.31;;;19.24;61.27
32081;BME280;18593;51.426;7.030;2023-06-24T01:47:07;101387.16;;;19.23;60.97
32081;BME280;18593;51.426;7.030;2023-06-24T01:49:39;101377.38;;;19.22;60.88
32081;BME280;18593;51.426;7.030;2023-06-24T01:52:09;101372.25;;;19.20;61.32
32081;BME280;18593;51.426;7.030;2023-06-24T01:54:39;101378.72;;;19.19;61.18
32081;BME280;18593;51.426;7.030;2023-06-24T01:57:09;101373.53;;;19.18;60.96
32081;BME280;18593;51.426;7.030;2023-06-24T01:59:41;101371.91;;;19.17;61.13
32081;BME280;18593;51.426;7.030;2023-06-24T02:02:11;101372.97;;;19.16;61.36
32081;BME280;18593;51.426;7.030;2023-06-24T02:04:39;101372.97;;;19.16;61.23
32081;BME280;18593;51.426;7.030;2023-06-24T02:07:08;101374.31;;;19.13;61.29
32081;BME280;18593;51.426;7.030;2023-06-24T02:09:38;101372.41;;;19.14;61.13
32081;BME280;18593;51.426;7.030;2023-06-24T02:12:09;101378.88;;;19.13;61.52
32081;BME280;18593;51.426;7.030;2023-06-24T02:14:37;101385.34;;;19.12;61.55
32081;BME280;18593;51.426;7.030;2023-06-24T02:17:08;101379.13;;;19.11;61.21
32081;BME280;18593;51.426;7.030;2023-06-24T02:19:38;101386.41;;;19.11;61.20
32081;BME280;18593;51.426;7.030;2023-06-24T02:22:07;101385.84;;;19.09;61.44
32081;BME280;18593;51.426;7.030;2023-06-24T02:24:37;101383.38;;;19.07;61.55
32081;BME280;18593;51.426;7.030;2023-06-24T02:27:07;101374.69;;;19.05;61.56
32081;BME280;18593;51.426;7.030;2023-06-24T02:29:36;101383.88;;;19.04;61.65
32081;BME280;18593;51.426;7.030;2023-06-24T02:32:05;101377.06;;;19.01;61.54
32081;BME280;18593;51.426;7.030;2023-06-24T02:34:32;101374.38;;;19.01;61.44
32081;BME280;18593;51.426;7.030;2023-06-24T02:37:01;101374.88;;;18.98;61.35
32081;BME280;18593;51.426;7.030;2023-06-24T02:39:29;101375.91;;;18.97;61.31
32081;BME280;18593;51.426;7.030;2023-06-24T02:41:56;101366.16;;;18.96;61.58
32081;BME280;18593;51.426;7.030;2023-06-24T02:44:23;101369.13;;;18.95;61.27
32081;BME280;18593;51.426;7.030;2023-06-24T02:46:52;101376.41;;;18.94;61.42
32081;BME280;18593;51.426;7.030;2023-06-24T02:49:21;101369.34;;;18.93;61.56
32081;BME280;18593;51.426;7.030;2023-06-24T02:51:48;101375.00;;;18.92;61.53
32081;BME280;18593;51.426;7.030;2023-06-24T02:54:17;101367.16;;;18.90;61.81
32081;BME280;18593;51.426;7.030;2023-06-24T02:57:08;101366.56;;;18.88;61.31
32081;BME280;18593;51.426;7.030;2023-06-24T02:59:59;101361.16;;;18.88;61.85
32081;BME280;18593;51.426;7.030;2023-06-24T03:02:45;101368.69;;;18.86;61.71
32081;BME280;18593;51.426;7.030;2023-06-24T03:05:14;101365.19;;;18.86;61.83
32081;BME280;18593;51.426;7.030;2023-06-24T03:07:42;101374.09;;;18.86;61.61
32081;BME280;18593;51.426;7.030;2023-06-24T03:10:11;101378.69;;;18.86;61.69
32081;BME280;18593;51.426;7.030;2023-06-24T03:12:40;101378.94;;;18.84;61.84
32081;BME280;18593;51.426;7.030;2023-06-24T03:15:08;101380.81;;;18.84;61.70
32081;BME280;18593;51.426;7.030;2023-06-24T03:17:36;101377.28;;;18.83;62.06
32081;BME280;18593;51.426;7.030;2023-06-24T03:20:05;101383.75;;;18.82;62.27
32081;BME280;18593;51.426;7.030;2023-06-24T03:22:34;101380.00;;;18.83;62.35
32081;BME280;18593;51.426;7.030;2023-06-24T03:25:03;101377.28;;;18.83;62.06
32081;BME280;18593;51.426;7.030;2023-06-24T03:27:32;101378.34;;;18.82;62.29
32081;BME280;18593;51.426;7.030;2023-06-24T03:30:02;101371.88;;;18.83;62.50
32081;BME280;18593;51.426;7.030;2023-06-24T03:32:32;101375.41;;;18.84;62.42
32081;BME280;18593;51.426;7.030;2023-06-24T03:35:01;101367.88;;;18.86;62.96
32081;BME280;18593;51.426;7.030;2023-06-24T03:37:28;101367.06;;;18.85;63.33
32081;BME280;18593;51.426;7.030;2023-06-24T03:39:56;101379.50;;;18.86;63.23
32081;BME280;18593;51.426;7.030;2023-06-24T03:42:24;101374.09;;;18.86;63.19
32081;BME280;18593;51.426;7.030;2023-06-24T03:44:53;101380.34;;;18.87;63.19
32081;BME280;18593;51.426;7.030;2023-06-24T03:47:20;101383.84;;;18.87;63.49
32081;BME280;18593;51.426;7.030;2023-06-24T03:49:47;101382.78;;;18.88;63.50
32081;BME280;18593;51.426;7.030;2023-06-24T03:52:14;101378.22;;;18.89;63.38
32081;BME280;18593;51.426;7.030;2023-06-24T03:54:43;101388.78;;;18.90;63.46
32081;BME280;18593;51.426;7.030;2023-06-24T03:57:10;101393.13;;;18.91;63.32
32081;BME280;18593;51.426;7.030;2023-06-24T03:59:38;101387.72;;;18.91;63.44
32081;BME280;18593;51.426;7.030;2023-06-24T04:02:06;101395.56;;;18.93;63.59
32081;BME280;18593;51.426;7.030;2023-06-24T04:04:36;101391.81;;;18.94;63.71
32081;BME280;18593;51.426;7.030;2023-06-24T04:07:04;101398.06;;;18.94;63.79
32081;BME280;18593;51.426;7.030;2023-06-24T04:09:33;101393.47;;;18.95;64.15
32081;BME280;18593;51.426;7.030;2023-06-24T04:12:01;101403.75;;;18.98;64.16
32081;BME280;18593;51.426;7.030;2023-06-24T04:14:33;101403.28;;;19.01;64.10
32081;BME280;18593;51.426;7.030;2023-06-24T04:17:00;101402.47;;;19.00;64.08
32081;BME280;18593;51.426;7.030;2023-06-24T04:19:31;101398.69;;;19.01;64.17
32081;BME280;18593;51.426;7.030;2023-06-24T04:21:58;101394.91;;;19.02;64.40
32081;BME280;18593;51.426;7.030;2023-06-24T04:24:25;101391.19;;;19.03;63.82
32081;BME280;18593;51.426;7.030;2023-06-24T04:26:52;101390.09;;;19.04;63.94
32081;BME280;18593;51.426;7.030;2023-06-24T04:29:21;101396.06;;;19.07;64.09
32081;BME280;18593;51.426;7.030;2023-06-24T04:31:48;101386.09;;;19.07;64.26
32081;BME280;18593;51.426;7.030;2023-06-24T04:34:16;101385.25;;;19.07;64.31
32081;BME280;18593;51.426;7.030;2023-06-24T04:36:45;101389.38;;;19.09;64.57
32081;BME280;18593;51.426;7.030;2023-06-24T04:39:12;101401.00;;;19.10;64.84
32081;BME280;18593;51.426;7.030;2023-06-24T04:41:40;101398.06;;;19.11;65.14
32081;BME280;18593;51.426;7.030;2023-06-24T04:44:07;101399.69;;;19.12;65.09
32081;BME280;18593;51.426;7.030;2023-06-24T04:46:34;101404.88;;;19.14;65.12
32081;BME280;18593;51.426;7.030;2023-06-24T04:49:03;101397.56;;;19.14;65.31
32081;BME280;18593;51.426;7.030;2023-06-24T04:51:30;101400.03;;;19.16;65.35
32081;BME280;18593;51.426;7.030;2023-06-24T04:53:59;101408.69;;;19.18;65.76
32081;BME280;18593;51.426;7.030;2023-06-24T04:56:27;101403.88;;;19.20;65.71
32081;BME280;18593;51.426;7.030;2023-06-24T04:58:54;101403.63;;;19.21;65.47
32081;BME280;18593;51.426;7.030;2023-06-24T05:01:22;101405.34;;;19.27;65.92
32081;BME280;18593;51.426;7.030;2023-06-24T05:03:49;101400.03;;;19.33;66.34
32081;BME280;18593;51.426;7.030;2023-06-24T05:06:16;101392.31;;;19.41;66.32
32081;BME280;18593;51.426;7.030;2023-06-24T05:08:44;101394.59;;;19.49;66.55
32081;BME280;18593;51.426;7.030;2023-06-24T05:11:12;101399.81;;;19.56;65.25
32081;BME280;18593;51.426;7.030;2023-06-24T05:13:40;101401.59;;;19.62;65.41
32081;BME280;18593;51.426;7.030;2023-06-24T05:16:07;101402.47;;;19.68;65.37
32081;BME280;18593;51.426;7.030;2023-06-24T05:18:35;101401.47;;;19.74;65.11
32081;BME280;18593;51.426;7.030;2023-06-24T05:21:02;101392.13;;;19.82;65.02
32081;BME280;18593;51.426;7.030;2023-06-24T05:23:29;101393.06;;;19.92;64.37
32081;BME280;18593;51.426;7.030;2023-06-24T05:25:56;101389.69;;;20.02;64.13
32081;BME280;18593;51.426;7.030;2023-06-24T05:28:25;101389.53;;;20.14;64.21
32081;BME280;18593;51.426;7.030;2023-06-24T05:30:52;101392.38;;;20.24;64.25
32081;BME280;18593;51.426;7.030;2023-06-24T05:33:20;101391.44;;;20.35;64.07
32081;BME280;18593;51.426;7.030;2023-06-24T05:35:47;101395.91;;;20.46;63.54
32081;BME280;18593;51.426;7.030;2023-06-24T05:38:15;101394.69;;;20.59;63.56
32081;BME280;18593;51.426;7.030;2023-06-24T05:40:42;101390.97;;;20.65;62.64
32081;BME280;18593;51.426;7.030;2023-06-24T05:43:10;101394.25;;;20.67;62.00
32081;BME280;18593;51.426;7.030;2023-06-24T05:45:39;101392.91;;;20.70;61.96
32081;BME280;18593;51.426;7.030;2023-06-24T05:48:06;101393.47;;;20.72;62.31
32081;BME280;18593;51.426;7.030;2023-06-24T05:50:33;101395.91;;;20.73;61.76
32081;BME280;18593;51.426;7.030;2023-06-24T05:53:01;101400.28;;;20.74;62.23
32081;BME280;18593;51.426;7.030;2023-06-24T05:55:28;101396.22;;;20.77;61.99
32081;BME280;18593;51.426;7.030;2023-06-24T05:57:55;101398.69;;;20.78;62.42
32081;BME280;18593;51.426;7.030;2023-06-24T06:00:22;101392.47;;;20.83;62.59
32081;BME280;18593;51.426;7.030;2023-06-24T06:02:51;101389.28;;;20.86;62.28
32081;BME280;18593;51.426;7.030;2023-06-24T06:05:18;101390.66;;;20.89;62.08
32081;BME280;18593;51.426;7.030;2023-06-24T06:07:46;101395.25;;;20.88;62.24
32081;BME280;18593;51.426;7.030;2023-06-24T06:10:14;101395.00;;;20.90;62.41
32081;BME280;18593;51.426;7.030;2023-06-24T06:12:43;101400.16;;;20.91;62.38
32081;BME280;18593;51.426;7.030;2023-06-24T06:15:11;101400.97;;;20.92;61.96
32081;BME280;18593;51.426;7.030;2023-06-24T06:17:38;101395.56;;;20.92;62.04
32081;BME280;18593;51.426;7.030;2023-06-24T06:20:09;101398.00;;;20.93;62.46
32081;BME280;18593;51.426;7.030;2023-06-24T06:22:36;101396.69;;;20.96;62.34
32081;BME280;18593;51.426;7.030;2023-06-24T06:25:05;101401.34;;;21.00;62.58
32081;BME280;18593;51.426;7.030;2023-06-24T06:27:33;101399.22;;;21.07;62.96
32081;BME280;18593;51.426;7.030;2023-06-24T06:30:00;101412.81;;;21.13;63.00
32081;BME280;18593;51.426;7.030;2023-06-24T06:32:28;101417.22;;;21.19;63.35
32081;BME280;18593;51.426;7.030;2023-06-24T06:34:55;101420.91;;;21.34;64.27
32081;BME280;18593;51.426;7.030;2023-06-24T06:37:23;101417.50;;;21.49;63.60
32081;BME280;18593;51.426;7.030;2023-06-24T06:39:51;101422.22;;;21.64;63.51
32081;BME280;18593;51.426;7.030;2023-06-24T06:42:18;101416.06;;;21.79;63.45
32081;BME280;18593;51.426;7.030;2023-06-24T06:44:45;101417.22;;;21.93;62.94
32081;BME280;18593;51.426;7.030;2023-06-24T06:47:12;101421.38;;;22.06;62.83
32081;BME280;18593;51.426;7.030;2023-06-24T06:49:40;101415.47;;;22.19;63.00
32081;BME280;18593;51.426;7.030;2023-06-24T06:52:07;101420.94;;;22.29;62.10
32081;BME280;18593;51.426;7.030;2023-06-24T06:54:36;101425.88;;;22.38;60.97
32081;BME280;18593;51.426;7.030;2023-06-24T06:57:04;101426.41;;;22.45;61.29
32081;BME280;18593;51.426;7.030;2023-06-24T06:59:32;101432.44;;;22.52;61.35
32081;BME280;18593;51.426;7.030;2023-06-24T07:01:59;101429.72;;;22.57;62.11
32081;BME280;18593;51.426;7.030;2023-06-24T07:04:26;101441.72;;;22.61;61.28
32081;BME280;18593;51.426;7.030;2023-06-24T07:06:53;101443.88;;;22.64;61.37
32081;BME280;18593;51.426;7.030;2023-06-24T07:09:21;101442.53;;;22.67;61.55
32081;BME280;18593;51.426;7.030;2023-06-24T07:11:49;101440.91;;;22.66;60.42
32081;BME280;18593;51.426;7.030;2023-06-24T07:14:16;101440.91;;;22.71;60.51
32081;BME280;18593;51.426;7.030;2023-06-24T07:16:44;101448.00;;;22.77;61.07
32081;BME280;18593;51.426;7.030;2023-06-24T07:19:11;101443.94;;;22.84;61.00
32081;BME280;18593;51.426;7.030;2023-06-24T07:21:38;101441.00;;;22.96;61.16
32081;BME280;18593;51.426;7.030;2023-06-24T07:24:06;101437.19;;;23.07;61.41
32081;BME280;18593;51.426;7.030;2023-06-24T07:26:33;101440.72;;;23.13;60.55
32081;BME280;18593;51.426;7.030;2023-06-24T07:29:02;101433.41;;;23.19;60.32
32081;BME280;18593;51.426;7.030;2023-06-24T07:31:32;101438.28;;;23.27;60.52
32081;BME280;18593;51.426;7.030;2023-06-24T07:34:00;101439.66;;;23.34;59.89
32081;BME280;18593;51.426;7.030;2023-06-24T07:36:27;101447.53;;;23.41;58.89
32081;BME280;18593;51.426;7.030;2023-06-24T07:38:54;101447.28;;;23.48;59.52
32081;BME280;18593;51.426;7.030;2023-06-24T07:41:21;101450.00;;;23.58;59.30
32081;BME280;18593;51.426;7.030;2023-06-24T07:43:49;101453.81;;;23.67;59.60
32081;BME280;18593;51.426;7.030;2023-06-24T07:46:17;101448.88;;;23.74;59.11
32081;BME280;18593;51.426;7.030;2023-06-24T07:48:45;101446.69;;;23.81;58.78
32081;BME280;18593;51.426;7.030;2023-06-24T07:51:12;101447.22;;;23.88;60.18
32081;BME280;18593;51.426;7.030;2023-06-24T07:53:39;101450.22;;;23.97;60.24
32081;BME280;18593;51.426;7.030;2023-06-24T07:56:06;101442.00;;;24.02;58.70
32081;BME280;18593;51.426;7.030;2023-06-24T07:58:34;101447.16;;;24.09;59.03
32081;BME280;18593;51.426;7.030;2023-06-24T08:01:03;101450.44;;;24.16;58.38
32081;BME280;18593;51.426;7.030;2023-06-24T08:03:34;101447.38;;;24.23;58.84
32081;BME280;18593;51.426;7.030;2023-06-24T08:06:02;101457.47;;;24.27;58.08
32081;BME280;18593;51.426;7.030;2023-06-24T08:08:30;101447.34;;;24.33;57.83
32081;BME280;18593;51.426;7.030;2023-06-24T08:10:57;101449.28;;;24.37;58.19
32081;BME280;18593;51.426;7.030;2023-06-24T08:13:24;101446.81;;;24.41;57.38
32081;BME280;18593;51.426;7.030;2023-06-24T08:15:51;101435.06;;;24.46;56.40
32081;BME280;18593;51.426;7.030;2023-06-24T08:18:19;101452.75;;;24.48;55.65
32081;BME280;18593;51.426;7.030;2023-06-24T08:20:47;101450.59;;;24.50;55.06
32081;BME280;18593;51.426;7.030;2023-06-24T08:23:14;101446.72;;;24.56;55.88
32081;BME280;18593;51.426;7.030;2023-06-24T08:25:42;101449.16;;;24.58;54.79
32081;BME280;18593;51.426;7.030;2023-06-24T08:28:10;101444.50;;;24.58;54.74
32081;BME280;18593;51.426;7.030;2023-06-24T08:30:37;101446.13;;;24.59;53.27
32081;BME280;18593;51.426;7.030;2023-06-24T08:33:04;101442.88;;;24.57;52.52
32081;BME280;18593;51.426;7.030;2023-06-24T08:35:31;101442.91;;;24.52;52.81
32081;BME280;18593;51.426;7.030;2023-06-24T08:38:00;101442.88;;;24.57;53.99
32081;BME280;18593;51.426;7.030;2023-06-24T08:40:28;101445.34;;;24.59;54.06
32081;BME280;18593;51.426;7.030;2023-06-24T08:42:55;101439.63;;;24.60;54.19
32081;BME280;18593;51.426;7.030;2023-06-24T08:45:24;101434.38;;;24.64;52.05
32081;BME280;18593;51.426;7.030;2023-06-24T08:47:53;101434.13;;;24.65;52.82
32081;BME280;18593;51.426;7.030;2023-06-24T08:50:23;101434.06;;;24.76;54.25
32081;BME280;18593;51.426;7.030;2023-06-24T08:52:52;101434.03;;;24.81;55.55
32081;BME280;18593;51.426;7.030;2023-06-24T08:55:23;101434.53;;;24.83;54.09
32081;BME280;18593;51.426;7.030;2023-06-24T08:57:54;101430.44;;;24.85;53.11
32081;BME280;18593;51.426;7.030;2023-06-24T09:00:22;101435.56;;;24.92;51.65
32081;BME280;18593;51.426;7.030;2023-06-24T09:02:49;101429.56;;;24.95;53.49
32081;BME280;18593;51.426;7.030;2023-06-24T09:05:16;101434.44;;;24.98;52.48
32081;BME280;18593;51.426;7.030;2023-06-24T09:07:43;101436.06;;;25.04;51.01
32081;BME280;18593;51.426;7.030;2023-06-24T09:10:31;101433.31;;;25.09;52.51
32081;BME280;18593;51.426;7.030;2023-06-24T09:12:59;101422.91;;;25.11;51.16
32081;BME280;18593;51.426;7.030;2023-06-24T09:15:30;101423.41;;;25.19;50.63
32081;BME280;18593;51.426;7.030;2023-06-24T09:17:58;101419.56;;;25.20;48.40
32081;BME280;18593;51.426;7.030;2023-06-24T09:20:26;101416.25;;;25.23;49.23
32081;BME280;18593;51.426;7.030;2023-06-24T09:22:58;101419.53;;;25.25;48.29
32081;BME280;18593;51.426;7.030;2023-06-24T09:25:26;101418.38;;;25.31;47.33
32081;BME280;18593;51.426;7.030;2023-06-24T09:27:59;101412.44;;;25.24;48.45
32081;BME280;18593;51.426;7.030;2023-06-24T09:30:26;101403.72;;;25.22;45.41
32081;BME280;18593;51.426;7.030;2023-06-24T09:32:54;101412.44;;;25.24;46.18
32081;BME280;18593;51.426;7.030;2023-06-24T09:35:23;101402.59;;;25.23;46.20
32081;BME280;18593;51.426;7.030;2023-06-24T09:37:51;101404.50;;;25.22;47.45
32081;BME280;18593;51.426;7.030;2023-06-24T09:40:19;101403.72;;;25.22;46.80
32081;BME280;18593;51.426;7.030;2023-06-24T09:42:52;101394.19;;;25.19;46.86
32081;BME280;18593;51.426;7.030;2023-06-24T09:45:24;101403.72;;;25.22;46.76
32081;BME280;18593;51.426;7.030;2023-06-24T09:47:51;101393.31;;;25.24;47.59
32081;BME280;18593;51.426;7.030;2023-06-24T09:50:18;101402.34;;;25.24;46.32
32081;BME280;18593;51.426;7.030;2023-06-24T09:52:48;101401.47;;;25.29;47.31
32081;BME280;18593;51.426;7.030;2023-06-24T09:55:17;101399.50;;;25.34;47.28
32081;BME280;18593;51.426;7.030;2023-06-24T09:57:46;101395.31;;;25.42;46.30
32081;BME280;18593;51.426;7.030;2023-06-24T10:00:16;101389.84;;;25.42;45.23
32081;BME280;18593;51.426;7.030;2023-06-24T10:02:47;101383.31;;;25.43;47.71
32081;BME280;18593;51.426;7.030;2023-06-24T10:05:14;101395.88;;;25.44;46.87
32081;BME280;18593;51.426;7.030;2023-06-24T10:07:42;101390.41;;;25.44;47.44
32081;BME280;18593;51.426;7.030;2023-06-24T10:10:10;101380.84;;;25.41;47.14
32081;BME280;18593;51.426;7.030;2023-06-24T10:12:38;101375.69;;;25.40;46.73
32081;BME280;18593;51.426;7.030;2023-06-24T10:15:06;101377.59;;;25.39;46.15
32081;BME280;18593;51.426;7.030;2023-06-24T10:17:33;101370.53;;;25.38;44.03
32081;BME280;18593;51.426;7.030;2023-06-24T10:20:06;101369.16;;;25.36;43.97
32081;BME280;18593;51.426;7.030;2023-06-24T10:22:33;101368.66;;;25.34;44.28
32081;BME280;18593;51.426;7.030;2023-06-24T10:25:06;101358.84;;;25.33;44.64
32081;BME280;18593;51.426;7.030;2023-06-24T10:27:39;101359.59;;;25.38;45.22
32081;BME280;18593;51.426;7.030;2023-06-24T10:30:09;101360.41;;;25.39;45.68
32081;BME280;18593;51.426;7.030;2023-06-24T10:32:43;101354.13;;;25.38;45.20
32081;BME280;18593;51.426;7.030;2023-06-24T10:35:23;101357.69;;;25.39;44.34
32081;BME280;18593;51.426;7.030;2023-06-24T10:37:56;101352.16;;;25.44;43.58
32081;BME280;18593;51.426;7.030;2023-06-24T10:40:37;101344.72;;;25.50;44.75
32081;BME280;18593;51.426;7.030;2023-06-24T10:43:29;101348.88;;;25.42;43.41
32081;BME280;18593;51.426;7.030;2023-06-24T10:45:57;101340.75;;;25.37;44.44
32081;BME280;18593;51.426;7.030;2023-06-24T10:48:25;101345.63;;;25.40;43.94
32081;BME280;18593;51.426;7.030;2023-06-24T10:50:53;101337.16;;;25.41;42.43
32081;BME280;18593;51.426;7.030;2023-06-24T10:53:22;101337.16;;;25.41;42.75
32081;BME280;18593;51.426;7.030;2023-06-24T10:55:49;101333.09;;;25.39;42.58
32081;BME280;18593;51.426;7.030;2023-06-24T10:58:17;101330.41;;;25.34;43.02
32081;BME280;18593;51.426;7.030;2023-06-24T11:00:44;101332.34;;;25.33;43.77
32081;BME280;18593;51.426;7.030;2023-06-24T11:03:14;101328.75;;;25.38;43.40
32081;BME280;18593;51.426;7.030;2023-06-24T11:05:42;101329.25;;;25.40;42.47
32081;BME280;18593;51.426;7.030;2023-06-24T11:08:11;101333.91;;;25.39;43.39
32081;BME280;18593;51.426;7.030;2023-06-24T11:10:46;101318.84;;;25.42;41.92
32081;BME280;18593;51.426;7.030;2023-06-24T11:13:14;101320.75;;;25.41;42.91
32081;BME280;18593;51.426;7.030;2023-06-24T11:15:42;101320.19;;;25.45;42.77
32081;BME280;18593;51.426;7.030;2023-06-24T11:18:09;101317.16;;;25.46;40.07
32081;BME280;18593;51.426;7.030;2023-06-24T11:20:38;101316.03;;;25.47;37.72
32081;BME280;18593;51.426;7.030;2023-06-24T11:23:07;101310.63;;;25.42;39.54
32081;BME280;18593;51.426;7.030;2023-06-24T11:25:41;101312.06;;;25.39;39.82
32081;BME280;18593;51.426;7.030;2023-06-24T11:28:17;101304.72;;;25.35;39.76
32081;BME280;18593;51.426;7.030;2023-06-24T11:30:44;101308.50;;;25.39;40.12
32081;BME280;18593;51.426;7.030;2023-06-24T11:33:11;101308.28;;;25.35;39.85
32081;BME280;18593;51.426;7.030;2023-06-24T11:35:39;101310.19;;;25.35;39.02
32081;BME280;18593;51.426;7.030;2023-06-24T11:38:06;101311.31;;;25.34;39.59
32081;BME280;18593;51.426;7.030;2023-06-24T11:40:34;101310.19;;;25.35;40.34
32081;BME280;18593;51.426;7.030;2023-06-24T11:43:03;101301.19;;;25.34;39.22
32081;BME280;18593;51.426;7.030;2023-06-24T11:45:31;101309.63;;;25.38;37.49
32081;BME280;18593;51.426;7.030;2023-06-24T11:48:03;101303.09;;;25.34;38.95
32081;BME280;18593;51.426;7.030;2023-06-24T11:50:31;101315.09;;;25.38;40.22
32081;BME280;18593;51.426;7.030;2023-06-24T11:52:58;101304.97;;;25.38;40.13
32081;BME280;18593;51.426;7.030;2023-06-24T11:55:27;101309.63;;;25.38;40.98
32081;BME280;18593;51.426;7.030;2023-06-24T11:57:57;101305.78;;;25.39;40.45
32081;BME280;18593;51.426;7.030;2023-06-24T12:00:28;101304.38;;;25.41;41.00
32081;BME280;18593;51.426;7.030;2023-06-24T12:02:57;101298.69;;;25.38;41.04
32081;BME280;18593;51.426;7.030;2023-06-24T12:05:27;101301.44;;;25.38;42.19
32081;BME280;18593;51.426;7.030;2023-06-24T12:07:56;101299.50;;;25.38;42.93
32081;BME280;18593;51.426;7.030;2023-06-24T12:10:24;101302.25;;;25.38;42.72
32081;BME280;18593;51.426;7.030;2023-06-24T12:12:51;101291.59;;;25.37;41.30
32081;BME280;18593;51.426;7.030;2023-06-24T12:15:19;101288.84;;;25.37;41.04
32081;BME280;18593;51.426;7.030;2023-06-24T12:17:47;101283.94;;;25.39;39.44
32081;BME280;18593;51.426;7.030;2023-06-24T12:20:15;101280.44;;;25.33;38.17
32081;BME280;18593;51.426;7.030;2023-06-24T12:22:44;101278.22;;;25.35;39.29
32081;BME280;18593;51.426;7.030;2023-06-24T12:25:11;101287.72;;;25.43;37.95
32081;BME280;18593;51.426;7.030;2023-06-24T12:27:39;101284.38;;;25.46;39.55
32081;BME280;18593;51.426;7.030;2023-06-24T12:30:08;101277.81;;;25.47;39.74
32081;BME280;18593;51.426;7.030;2023-06-24T12:32:36;101279.72;;;25.47;39.18
32081;BME280;18593;51.426;7.030;2023-06-24T12:35:08;101271.53;;;25.47;39.88
32081;BME280;18593;51.426;7.030;2023-06-24T12:37:36;101266.38;;;25.45;38.62
32081;BME280;18593;51.426;7.030;2023-06-24T12:40:05;101263.34;;;25.47;40.15
32081;BME280;18593;51.426;7.030;2023-06-24T12:42:32;101266.25;;;25.55;40.45
32081;BME280;18593;51.426;7.030;2023-06-24T12:45:00;101262.94;;;25.58;38.58
32081;BME280;18593;51.426;7.030;2023-06-24T12:47:27;101268.97;;;25.55;38.37
32081;BME280;18593;51.426;7.030;2023-06-24T12:49:54;101267.88;;;25.56;38.33
32081;BME280;18593;51.426;7.030;2023-06-24T12:52:23;101260.53;;;25.52;38.19
32081;BME280;18593;51.426;7.030;2023-06-24T12:54:50;101266.31;;;25.50;38.65
32081;BME280;18593;51.426;7.030;2023-06-24T12:57:17;101260.84;;;25.50;37.81
32081;BME280;18593;51.426;7.030;2023-06-24T12:59:44;101258.69;;;25.47;38.64
32081;BME280;18593;51.426;7.030;2023-06-24T13:02:12;101251.03;;;25.49;40.58